sensor_id;sensor_type;location;lat;lon;timestamp;P1;durP1;ratioP1;P2;durP2;ratioP2
40945;SDS011;55635;50.264;11.918;2023-01-16T00:01:27;1.88;;;0.88;;
40945;SDS011;55635;50.264;11.918;2023-01-16T00:04:08;5.85;;;1.23;;
40945;SDS011;55635;50.264;11.918;2023-01-16T00:06:49;2.55;;;0.93;;
40945;SDS011;55635;50.264;11.918;2023-01-16T00:09:31;2.67;;;0.88;;
40945;SDS011;55635;50.264;11.918;2023-01-16T00:12:12;2.92;;;1.35;;
40945;SDS011;55635;50.264;11.918;2023-01-16T00:14:52;2.60;;;1.27;;
40945;SDS011;55635;50.264;11.918;2023-01-16T00:17:33;1.60;;;0.98;;
40945;SDS011;55635;50.264;11.918;2023-01-16T00:20:15;2.35;;;1.20;;
40945;SDS011;55635;50.264;11.918;2023-01-16T00:22:56;1.98;;;1.15;;
40945;SDS011;55635;50.264;11.918;2023-01-16T00:25:41;3.58;;;1.70;;
40945;SDS011;55635;50.264;11.918;2023-01-16T00:28:22;2.22;;;1.00;;
40945;SDS011;55635;50.264;11.918;2023-01-16T00:31:04;3.58;;;1.33;;
40945;SDS011;55635;50.264;11.918;2023-01-16T00:33:46;1.50;;;0.77;;
40945;SDS011;55635;50.264;11.918;2023-01-16T00:36:26;5.30;;;1.00;;
40945;SDS011;55635;50.264;11.918;2023-01-16T00:39:07;4.03;;;1.15;;
40945;SDS011;55635;50.264;11.918;2023-01-16T00:41:48;2.55;;;0.88;;
40945;SDS011;55635;50.264;11.918;2023-01-16T00:44:29;2.28;;;0.90;;
40945;SDS011;55635;50.264;11.918;2023-01-16T00:47:10;2.63;;;0.95;;
40945;SDS011;55635;50.264;11.918;2023-01-16T00:49:51;2.17;;;0.82;;
40945;SDS011;55635;50.264;11.918;2023-01-16T00:52:32;1.65;;;0.90;;
40945;SDS011;55635;50.264;11.918;2023-01-16T00:55:13;2.83;;;0.90;;
40945;SDS011;55635;50.264;11.918;2023-01-16T00:57:54;4.53;;;1.02;;
40945;SDS011;55635;50.264;11.918;2023-01-16T01:00:35;0.85;;;0.57;;
40945;SDS011;55635;50.264;11.918;2023-01-16T01:03:19;4.18;;;0.80;;
40945;SDS011;55635;50.264;11.918;2023-01-16T01:06:04;1.38;;;0.70;;
40945;SDS011;55635;50.264;11.918;2023-01-16T01:08:47;2.47;;;0.50;;
40945;SDS011;55635;50.264;11.918;2023-01-16T01:11:28;1.73;;;0.55;;
40945;SDS011;55635;50.264;11.918;2023-01-16T01:14:09;4.30;;;0.93;;
40945;SDS011;55635;50.264;11.918;2023-01-16T01:16:50;2.85;;;0.70;;
40945;SDS011;55635;50.264;11.918;2023-01-16T01:19:31;1.10;;;0.57;;
40945;SDS011;55635;50.264;11.918;2023-01-16T01:22:12;2.38;;;0.70;;
40945;SDS011;55635;50.264;11.918;2023-01-16T01:24:53;1.67;;;0.80;;
40945;SDS011;55635;50.264;11.918;2023-01-16T01:30:27;3.55;;;0.52;;
40945;SDS011;55635;50.264;11.918;2023-01-16T01:33:07;3.45;;;0.80;;
40945;SDS011;55635;50.264;11.918;2023-01-16T01:35:49;2.95;;;0.80;;
40945;SDS011;55635;50.264;11.918;2023-01-16T01:38:30;4.90;;;0.80;;
40945;SDS011;55635;50.264;11.918;2023-01-16T01:41:12;1.33;;;0.82;;
40945;SDS011;55635;50.264;11.918;2023-01-16T01:43:54;1.55;;;0.57;;
40945;SDS011;55635;50.264;11.918;2023-01-16T01:46:41;3.97;;;0.85;;
40945;SDS011;55635;50.264;11.918;2023-01-16T01:49:27;6.18;;;0.70;;
40945;SDS011;55635;50.264;11.918;2023-01-16T01:52:11;6.20;;;1.15;;
40945;SDS011;55635;50.264;11.918;2023-01-16T01:55:00;2.55;;;0.98;;
40945;SDS011;55635;50.264;11.918;2023-01-16T01:57:46;5.70;;;0.88;;
40945;SDS011;55635;50.264;11.918;2023-01-16T02:00:39;2.80;;;0.50;;
40945;SDS011;55635;50.264;11.918;2023-01-16T02:03:24;0.98;;;0.60;;
40945;SDS011;55635;50.264;11.918;2023-01-16T02:06:17;2.35;;;0.70;;
40945;SDS011;55635;50.264;11.918;2023-01-16T02:09:13;3.42;;;0.88;;
40945;SDS011;55635;50.264;11.918;2023-01-16T02:11:56;6.32;;;1.20;;
40945;SDS011;55635;50.264;11.918;2023-01-16T02:14:42;2.88;;;0.47;;
40945;SDS011;55635;50.264;11.918;2023-01-16T02:17:26;3.25;;;0.70;;
40945;SDS011;55635;50.264;11.918;2023-01-16T02:33:28;3.38;;;0.75;;
40945;SDS011;55635;50.264;11.918;2023-01-16T02:37:07;3.08;;;0.60;;
40945;SDS011;55635;50.264;11.918;2023-01-16T02:40:23;2.47;;;0.60;;
40945;SDS011;55635;50.264;11.918;2023-01-16T02:49:43;2.72;;;0.63;;
40945;SDS011;55635;50.264;11.918;2023-01-16T02:53:02;2.40;;;0.50;;
40945;SDS011;55635;50.264;11.918;2023-01-16T02:56:04;1.17;;;0.50;;
40945;SDS011;55635;50.264;11.918;2023-01-16T02:58:49;2.17;;;0.70;;
40945;SDS011;55635;50.264;11.918;2023-01-16T03:01:32;2.67;;;0.82;;
40945;SDS011;55635;50.264;11.918;2023-01-16T03:10:42;4.00;;;1.15;;
40945;SDS011;55635;50.264;11.918;2023-01-16T03:17:25;2.83;;;0.82;;
40945;SDS011;55635;50.264;11.918;2023-01-16T03:23:28;5.15;;;0.85;;
40945;SDS011;55635;50.264;11.918;2023-01-16T03:26:43;7.43;;;1.25;;
40945;SDS011;55635;50.264;11.918;2023-01-16T03:32:43;5.32;;;0.68;;
40945;SDS011;55635;50.264;11.918;2023-01-16T03:35:32;2.00;;;0.70;;
40945;SDS011;55635;50.264;11.918;2023-01-16T03:38:32;1.52;;;0.40;;
40945;SDS011;55635;50.264;11.918;2023-01-16T03:41:17;3.78;;;0.60;;
40945;SDS011;55635;50.264;11.918;2023-01-16T03:44:04;9.95;;;1.60;;
40945;SDS011;55635;50.264;11.918;2023-01-16T03:46:52;1.92;;;0.57;;
40945;SDS011;55635;50.264;11.918;2023-01-16T03:49:39;4.68;;;0.70;;
40945;SDS011;55635;50.264;11.918;2023-01-16T03:52:24;1.75;;;0.60;;
40945;SDS011;55635;50.264;11.918;2023-01-16T03:55:27;1.58;;;0.57;;
40945;SDS011;55635;50.264;11.918;2023-01-16T03:58:26;2.13;;;1.17;;
40945;SDS011;55635;50.264;11.918;2023-01-16T04:04:09;3.95;;;0.80;;
40945;SDS011;55635;50.264;11.918;2023-01-16T04:07:01;1.60;;;0.85;;
40945;SDS011;55635;50.264;11.918;2023-01-16T04:09:50;2.67;;;1.00;;
40945;SDS011;55635;50.264;11.918;2023-01-16T04:12:43;4.50;;;0.75;;
40945;SDS011;55635;50.264;11.918;2023-01-16T04:15:29;1.70;;;0.93;;
40945;SDS011;55635;50.264;11.918;2023-01-16T04:18:14;5.18;;;0.90;;
40945;SDS011;55635;50.264;11.918;2023-01-16T04:20:55;2.40;;;0.90;;
40945;SDS011;55635;50.264;11.918;2023-01-16T04:23:36;2.55;;;0.80;;
40945;SDS011;55635;50.264;11.918;2023-01-16T04:26:17;4.82;;;1.20;;
40945;SDS011;55635;50.264;11.918;2023-01-16T04:28:58;2.40;;;1.02;;
40945;SDS011;55635;50.264;11.918;2023-01-16T04:31:39;3.42;;;1.35;;
40945;SDS011;55635;50.264;11.918;2023-01-16T04:34:20;2.65;;;1.23;;
40945;SDS011;55635;50.264;11.918;2023-01-16T04:37:00;3.58;;;1.20;;
40945;SDS011;55635;50.264;11.918;2023-01-16T04:39:41;6.60;;;1.40;;
40945;SDS011;55635;50.264;11.918;2023-01-16T04:42:23;5.40;;;1.50;;
40945;SDS011;55635;50.264;11.918;2023-01-16T04:45:04;2.35;;;1.20;;
40945;SDS011;55635;50.264;11.918;2023-01-16T04:47:46;7.47;;;1.25;;
40945;SDS011;55635;50.264;11.918;2023-01-16T04:50:28;5.63;;;1.60;;
40945;SDS011;55635;50.264;11.918;2023-01-16T04:53:08;3.20;;;2.22;;
40945;SDS011;55635;50.264;11.918;2023-01-16T04:55:49;2.25;;;1.63;;
40945;SDS011;55635;50.264;11.918;2023-01-16T04:58:30;2.17;;;1.15;;
40945;SDS011;55635;50.264;11.918;2023-01-16T05:01:11;4.55;;;1.60;;
40945;SDS011;55635;50.264;11.918;2023-01-16T05:03:52;1.40;;;1.30;;
40945;SDS011;55635;50.264;11.918;2023-01-16T05:06:33;5.43;;;1.90;;
40945;SDS011;55635;50.264;11.918;2023-01-16T05:09:15;3.97;;;1.77;;
40945;SDS011;55635;50.264;11.918;2023-01-16T05:11:56;4.30;;;1.80;;
40945;SDS011;55635;50.264;11.918;2023-01-16T05:14:37;8.23;;;2.03;;
40945;SDS011;55635;50.264;11.918;2023-01-16T05:17:18;6.40;;;1.85;;
40945;SDS011;55635;50.264;11.918;2023-01-16T05:20:02;1.85;;;1.67;;
40945;SDS011;55635;50.264;11.918;2023-01-16T05:22:44;6.55;;;1.92;;
40945;SDS011;55635;50.264;11.918;2023-01-16T05:25:25;3.72;;;2.00;;
40945;SDS011;55635;50.264;11.918;2023-01-16T05:28:05;2.95;;;2.30;;
40945;SDS011;55635;50.264;11.918;2023-01-16T05:30:47;3.20;;;1.70;;
40945;SDS011;55635;50.264;11.918;2023-01-16T05:33:28;1.67;;;1.58;;
40945;SDS011;55635;50.264;11.918;2023-01-16T05:36:09;6.15;;;2.03;;
40945;SDS011;55635;50.264;11.918;2023-01-16T05:38:50;3.08;;;1.60;;
40945;SDS011;55635;50.264;11.918;2023-01-16T05:41:37;4.25;;;1.95;;
40945;SDS011;55635;50.264;11.918;2023-01-16T05:44:18;2.67;;;1.73;;
40945;SDS011;55635;50.264;11.918;2023-01-16T05:46:59;2.10;;;1.50;;
40945;SDS011;55635;50.264;11.918;2023-01-16T05:49:40;2.67;;;1.52;;
40945;SDS011;55635;50.264;11.918;2023-01-16T05:52:21;4.00;;;1.67;;
40945;SDS011;55635;50.264;11.918;2023-01-16T05:55:02;3.50;;;1.60;;
40945;SDS011;55635;50.264;11.918;2023-01-16T05:57:43;4.57;;;1.45;;
40945;SDS011;55635;50.264;11.918;2023-01-16T06:00:24;2.17;;;1.63;;
40945;SDS011;55635;50.264;11.918;2023-01-16T06:03:05;6.32;;;1.92;;
40945;SDS011;55635;50.264;11.918;2023-01-16T06:05:47;6.68;;;2.00;;
40945;SDS011;55635;50.264;11.918;2023-01-16T06:08:28;5.55;;;1.30;;
40945;SDS011;55635;50.264;11.918;2023-01-16T06:11:09;2.85;;;1.85;;
40945;SDS011;55635;50.264;11.918;2023-01-16T06:13:50;2.90;;;1.80;;
40945;SDS011;55635;50.264;11.918;2023-01-16T06:16:31;5.53;;;2.53;;
40945;SDS011;55635;50.264;11.918;2023-01-16T06:19:12;4.63;;;2.22;;
40945;SDS011;55635;50.264;11.918;2023-01-16T06:21:53;6.20;;;1.85;;
40945;SDS011;55635;50.264;11.918;2023-01-16T06:24:34;5.80;;;1.50;;
40945;SDS011;55635;50.264;11.918;2023-01-16T06:27:15;4.30;;;1.50;;
40945;SDS011;55635;50.264;11.918;2023-01-16T06:29:56;2.20;;;1.65;;
40945;SDS011;55635;50.264;11.918;2023-01-16T06:32:37;2.53;;;1.75;;
40945;SDS011;55635;50.264;11.918;2023-01-16T06:35:18;3.38;;;1.90;;
40945;SDS011;55635;50.264;11.918;2023-01-16T06:37:59;5.03;;;1.95;;
40945;SDS011;55635;50.264;11.918;2023-01-16T06:40:40;3.58;;;1.75;;
40945;SDS011;55635;50.264;11.918;2023-01-16T06:43:24;2.15;;;1.67;;
40945;SDS011;55635;50.264;11.918;2023-01-16T06:46:06;2.90;;;1.50;;
40945;SDS011;55635;50.264;11.918;2023-01-16T06:48:47;2.42;;;2.00;;
40945;SDS011;55635;50.264;11.918;2023-01-16T06:51:28;3.90;;;2.00;;
40945;SDS011;55635;50.264;11.918;2023-01-16T06:54:09;3.63;;;1.70;;
40945;SDS011;55635;50.264;11.918;2023-01-16T06:56:50;5.07;;;1.75;;
40945;SDS011;55635;50.264;11.918;2023-01-16T06:59:31;5.68;;;2.00;;
40945;SDS011;55635;50.264;11.918;2023-01-16T07:02:12;4.68;;;2.10;;
40945;SDS011;55635;50.264;11.918;2023-01-16T07:04:53;2.85;;;1.90;;
40945;SDS011;55635;50.264;11.918;2023-01-16T07:07:34;3.58;;;2.10;;
40945;SDS011;55635;50.264;11.918;2023-01-16T07:10:16;6.88;;;3.03;;
40945;SDS011;55635;50.264;11.918;2023-01-16T07:13:00;3.35;;;2.20;;
40945;SDS011;55635;50.264;11.918;2023-01-16T07:15:44;2.17;;;1.77;;
40945;SDS011;55635;50.264;11.918;2023-01-16T07:18:46;2.65;;;1.33;;
40945;SDS011;55635;50.264;11.918;2023-01-16T07:21:49;2.50;;;1.73;;
40945;SDS011;55635;50.264;11.918;2023-01-16T07:27:30;2.40;;;1.85;;
40945;SDS011;55635;50.264;11.918;2023-01-16T07:30:11;2.47;;;1.38;;
40945;SDS011;55635;50.264;11.918;2023-01-16T07:32:53;2.20;;;1.20;;
40945;SDS011;55635;50.264;11.918;2023-01-16T07:35:34;2.28;;;1.27;;
40945;SDS011;55635;50.264;11.918;2023-01-16T07:38:15;4.10;;;1.23;;
40945;SDS011;55635;50.264;11.918;2023-01-16T07:40:56;3.28;;;1.55;;
40945;SDS011;55635;50.264;11.918;2023-01-16T07:43:36;1.33;;;0.90;;
40945;SDS011;55635;50.264;11.918;2023-01-16T07:46:17;1.50;;;1.38;;
40945;SDS011;55635;50.264;11.918;2023-01-16T07:48:58;2.53;;;1.40;;
40945;SDS011;55635;50.264;11.918;2023-01-16T07:51:39;9.35;;;1.48;;
40945;SDS011;55635;50.264;11.918;2023-01-16T07:54:20;1.10;;;0.88;;
40945;SDS011;55635;50.264;11.918;2023-01-16T07:57:02;4.95;;;1.38;;
40945;SDS011;55635;50.264;11.918;2023-01-16T07:59:43;4.38;;;1.25;;
40945;SDS011;55635;50.264;11.918;2023-01-16T08:02:24;6.20;;;1.40;;
40945;SDS011;55635;50.264;11.918;2023-01-16T08:05:05;3.83;;;1.20;;
40945;SDS011;55635;50.264;11.918;2023-01-16T08:07:47;3.65;;;1.20;;
40945;SDS011;55635;50.264;11.918;2023-01-16T08:10:29;3.00;;;1.58;;
40945;SDS011;55635;50.264;11.918;2023-01-16T08:13:10;2.25;;;1.27;;
40945;SDS011;55635;50.264;11.918;2023-01-16T08:15:51;4.68;;;1.48;;
40945;SDS011;55635;50.264;11.918;2023-01-16T08:18:32;5.00;;;1.63;;
40945;SDS011;55635;50.264;11.918;2023-01-16T08:21:16;3.33;;;1.50;;
40945;SDS011;55635;50.264;11.918;2023-01-16T08:23:57;2.08;;;1.30;;
40945;SDS011;55635;50.264;11.918;2023-01-16T08:26:38;4.43;;;1.33;;
40945;SDS011;55635;50.264;11.918;2023-01-16T08:29:20;3.58;;;2.00;;
40945;SDS011;55635;50.264;11.918;2023-01-16T08:32:04;2.33;;;1.50;;
40945;SDS011;55635;50.264;11.918;2023-01-16T08:34:45;1.70;;;1.60;;
40945;SDS011;55635;50.264;11.918;2023-01-16T08:37:26;3.58;;;1.70;;
40945;SDS011;55635;50.264;11.918;2023-01-16T08:40:08;2.83;;;1.60;;
40945;SDS011;55635;50.264;11.918;2023-01-16T08:42:52;3.53;;;1.30;;
40945;SDS011;55635;50.264;11.918;2023-01-16T08:45:52;3.00;;;1.50;;
40945;SDS011;55635;50.264;11.918;2023-01-16T08:51:51;3.13;;;1.40;;
40945;SDS011;55635;50.264;11.918;2023-01-16T08:54:32;3.28;;;1.40;;
40945;SDS011;55635;50.264;11.918;2023-01-16T08:57:12;2.08;;;1.42;;
40945;SDS011;55635;50.264;11.918;2023-01-16T08:59:54;13.15;;;2.08;;
40945;SDS011;55635;50.264;11.918;2023-01-16T09:02:36;2.05;;;1.20;;
40945;SDS011;55635;50.264;11.918;2023-01-16T09:05:18;4.63;;;1.70;;
40945;SDS011;55635;50.264;11.918;2023-01-16T09:07:59;3.83;;;1.13;;
40945;SDS011;55635;50.264;11.918;2023-01-16T09:10:40;3.83;;;1.40;;
40945;SDS011;55635;50.264;11.918;2023-01-16T09:13:41;1.80;;;1.10;;
40945;SDS011;55635;50.264;11.918;2023-01-16T09:19:12;1.70;;;1.00;;
40945;SDS011;55635;50.264;11.918;2023-01-16T09:21:52;1.77;;;0.85;;
40945;SDS011;55635;50.264;11.918;2023-01-16T09:24:34;1.80;;;0.80;;
40945;SDS011;55635;50.264;11.918;2023-01-16T09:27:22;2.92;;;1.10;;
40945;SDS011;55635;50.264;11.918;2023-01-16T09:30:04;3.28;;;1.20;;
40945;SDS011;55635;50.264;11.918;2023-01-16T09:32:46;1.73;;;0.82;;
40945;SDS011;55635;50.264;11.918;2023-01-16T09:35:27;2.72;;;0.93;;
40945;SDS011;55635;50.264;11.918;2023-01-16T09:38:08;2.28;;;0.77;;
40945;SDS011;55635;50.264;11.918;2023-01-16T09:40:56;2.45;;;0.80;;
40945;SDS011;55635;50.264;11.918;2023-01-16T09:43:42;1.45;;;0.68;;
40945;SDS011;55635;50.264;11.918;2023-01-16T09:46:29;1.42;;;0.77;;
40945;SDS011;55635;50.264;11.918;2023-01-16T09:49:23;3.08;;;1.10;;
40945;SDS011;55635;50.264;11.918;2023-01-16T09:52:12;2.33;;;0.57;;
40945;SDS011;55635;50.264;11.918;2023-01-16T09:55:26;0.88;;;0.50;;
40945;SDS011;55635;50.264;11.918;2023-01-16T09:58:37;1.08;;;0.93;;
40945;SDS011;55635;50.264;11.918;2023-01-16T10:01:56;1.92;;;0.80;;
40945;SDS011;55635;50.264;11.918;2023-01-16T10:04:58;2.13;;;1.00;;
40945;SDS011;55635;50.264;11.918;2023-01-16T10:16:49;1.95;;;0.65;;
40945;SDS011;55635;50.264;11.918;2023-01-16T10:38:26;1.33;;;0.70;;
40945;SDS011;55635;50.264;11.918;2023-01-16T10:41:22;0.90;;;0.52;;
40945;SDS011;55635;50.264;11.918;2023-01-16T10:44:39;2.05;;;0.50;;
40945;SDS011;55635;50.264;11.918;2023-01-16T10:47:55;3.35;;;0.60;;
40945;SDS011;55635;50.264;11.918;2023-01-16T10:53:36;2.20;;;0.68;;
40945;SDS011;55635;50.264;11.918;2023-01-16T10:56:18;1.15;;;0.60;;
40945;SDS011;55635;50.264;11.918;2023-01-16T10:58:59;2.72;;;0.70;;
40945;SDS011;55635;50.264;11.918;2023-01-16T11:01:40;0.65;;;0.40;;
40945;SDS011;55635;50.264;11.918;2023-01-16T11:04:22;2.38;;;0.45;;
40945;SDS011;55635;50.264;11.918;2023-01-16T11:07:16;0.85;;;0.50;;
40945;SDS011;55635;50.264;11.918;2023-01-16T11:10:00;0.85;;;0.40;;
40945;SDS011;55635;50.264;11.918;2023-01-16T11:12:42;0.75;;;0.50;;
40945;SDS011;55635;50.264;11.918;2023-01-16T11:19:19;0.82;;;0.50;;
40945;SDS011;55635;50.264;11.918;2023-01-16T11:22:09;4.15;;;0.50;;
40945;SDS011;55635;50.264;11.918;2023-01-16T11:25:09;0.77;;;0.52;;
40945;SDS011;55635;50.264;11.918;2023-01-16T11:28:01;0.70;;;0.70;;
40945;SDS011;55635;50.264;11.918;2023-01-16T11:30:47;2.22;;;0.68;;
40945;SDS011;55635;50.264;11.918;2023-01-16T11:33:36;2.38;;;0.55;;
40945;SDS011;55635;50.264;11.918;2023-01-16T11:36:24;0.90;;;0.40;;
40945;SDS011;55635;50.264;11.918;2023-01-16T11:39:06;1.08;;;0.40;;
40945;SDS011;55635;50.264;11.918;2023-01-16T11:41:58;1.48;;;0.50;;
40945;SDS011;55635;50.264;11.918;2023-01-16T11:45:36;0.57;;;0.40;;
40945;SDS011;55635;50.264;11.918;2023-01-16T11:48:42;1.30;;;0.40;;
40945;SDS011;55635;50.264;11.918;2023-01-16T11:54:15;1.83;;;0.60;;
40945;SDS011;55635;50.264;11.918;2023-01-16T12:06:43;0.68;;;0.35;;
40945;SDS011;55635;50.264;11.918;2023-01-16T12:10:02;1.48;;;0.50;;
40945;SDS011;55635;50.264;11.918;2023-01-16T12:13:05;1.85;;;0.45;;
40945;SDS011;55635;50.264;11.918;2023-01-16T12:16:12;0.80;;;0.30;;
40945;SDS011;55635;50.264;11.918;2023-01-16T12:34:45;1.80;;;0.40;;
40945;SDS011;55635;50.264;11.918;2023-01-16T12:45:17;1.73;;;0.50;;
40945;SDS011;55635;50.264;11.918;2023-01-16T12:50:57;1.98;;;0.35;;
40945;SDS011;55635;50.264;11.918;2023-01-16T12:57:09;2.00;;;0.28;;
40945;SDS011;55635;50.264;11.918;2023-01-16T13:00:09;0.82;;;0.30;;
40945;SDS011;55635;50.264;11.918;2023-01-16T13:02:57;0.95;;;0.55;;
40945;SDS011;55635;50.264;11.918;2023-01-16T13:06:16;1.00;;;0.43;;
40945;SDS011;55635;50.264;11.918;2023-01-16T13:09:29;2.33;;;0.32;;
40945;SDS011;55635;50.264;11.918;2023-01-16T13:12:55;2.25;;;0.45;;
40945;SDS011;55635;50.264;11.918;2023-01-16T13:16:02;1.98;;;0.30;;
40945;SDS011;55635;50.264;11.918;2023-01-16T13:18:58;2.20;;;0.20;;
40945;SDS011;55635;50.264;11.918;2023-01-16T13:25:24;0.57;;;0.40;;
40945;SDS011;55635;50.264;11.918;2023-01-16T13:28:18;1.38;;;0.55;;
40945;SDS011;55635;50.264;11.918;2023-01-16T13:34:49;1.67;;;0.40;;
40945;SDS011;55635;50.264;11.918;2023-01-16T13:37:49;1.25;;;0.70;;
40945;SDS011;55635;50.264;11.918;2023-01-16T13:43:59;1.30;;;0.70;;
40945;SDS011;55635;50.264;11.918;2023-01-16T13:50:30;2.10;;;0.60;;
40945;SDS011;55635;50.264;11.918;2023-01-16T13:53:15;1.25;;;0.40;;
40945;SDS011;55635;50.264;11.918;2023-01-16T13:56:04;0.77;;;0.40;;
40945;SDS011;55635;50.264;11.918;2023-01-16T13:58:58;1.77;;;0.50;;
40945;SDS011;55635;50.264;11.918;2023-01-16T14:04:29;1.15;;;0.50;;
40945;SDS011;55635;50.264;11.918;2023-01-16T14:07:44;1.42;;;0.40;;
40945;SDS011;55635;50.264;11.918;2023-01-16T14:13:39;4.00;;;0.77;;
40945;SDS011;55635;50.264;11.918;2023-01-16T14:16:31;3.97;;;0.60;;
40945;SDS011;55635;50.264;11.918;2023-01-16T14:19:21;1.77;;;0.40;;
40945;SDS011;55635;50.264;11.918;2023-01-16T14:22:03;2.67;;;0.63;;
40945;SDS011;55635;50.264;11.918;2023-01-16T14:24:50;2.97;;;0.60;;
40945;SDS011;55635;50.264;11.918;2023-01-16T14:27:39;1.88;;;0.40;;
40945;SDS011;55635;50.264;11.918;2023-01-16T14:30:25;0.43;;;0.40;;
40945;SDS011;55635;50.264;11.918;2023-01-16T14:33:11;1.30;;;0.30;;
40945;SDS011;55635;50.264;11.918;2023-01-16T14:35:58;2.03;;;0.45;;
40945;SDS011;55635;50.264;11.918;2023-01-16T14:38:43;1.58;;;0.50;;
40945;SDS011;55635;50.264;11.918;2023-01-16T14:41:27;1.00;;;0.47;;
40945;SDS011;55635;50.264;11.918;2023-01-16T14:44:30;1.17;;;0.63;;
40945;SDS011;55635;50.264;11.918;2023-01-16T14:47:29;1.35;;;0.65;;
40945;SDS011;55635;50.264;11.918;2023-01-16T14:50:41;0.63;;;0.40;;
40945;SDS011;55635;50.264;11.918;2023-01-16T14:57:26;3.70;;;1.52;;
40945;SDS011;55635;50.264;11.918;2023-01-16T15:00:10;1.30;;;0.50;;
40945;SDS011;55635;50.264;11.918;2023-01-16T15:03:00;2.00;;;0.68;;
40945;SDS011;55635;50.264;11.918;2023-01-16T15:05:57;3.63;;;0.85;;
40945;SDS011;55635;50.264;11.918;2023-01-16T15:08:43;1.50;;;0.47;;
40945;SDS011;55635;50.264;11.918;2023-01-16T15:11:28;0.80;;;0.50;;
40945;SDS011;55635;50.264;11.918;2023-01-16T15:14:15;4.53;;;0.60;;
40945;SDS011;55635;50.264;11.918;2023-01-16T15:17:16;3.00;;;0.60;;
40945;SDS011;55635;50.264;11.918;2023-01-16T15:20:36;1.00;;;0.65;;
40945;SDS011;55635;50.264;11.918;2023-01-16T15:23:37;1.80;;;0.45;;
40945;SDS011;55635;50.264;11.918;2023-01-16T15:32:03;1.02;;;0.52;;
40945;SDS011;55635;50.264;11.918;2023-01-16T15:35:13;2.17;;;0.40;;
40945;SDS011;55635;50.264;11.918;2023-01-16T15:37:57;0.50;;;0.30;;
40945;SDS011;55635;50.264;11.918;2023-01-16T15:40:49;1.45;;;0.45;;
40945;SDS011;55635;50.264;11.918;2023-01-16T15:43:31;1.30;;;0.70;;
40945;SDS011;55635;50.264;11.918;2023-01-16T15:49:31;0.40;;;0.40;;
40945;SDS011;55635;50.264;11.918;2023-01-16T15:52:30;1.83;;;0.50;;
40945;SDS011;55635;50.264;11.918;2023-01-16T15:58:24;1.33;;;0.50;;
40945;SDS011;55635;50.264;11.918;2023-01-16T16:01:05;0.50;;;0.50;;
40945;SDS011;55635;50.264;11.918;2023-01-16T16:03:47;0.93;;;0.70;;
40945;SDS011;55635;50.264;11.918;2023-01-16T16:06:33;3.80;;;0.60;;
40945;SDS011;55635;50.264;11.918;2023-01-16T16:09:19;2.15;;;0.68;;
40945;SDS011;55635;50.264;11.918;2023-01-16T16:12:02;2.25;;;0.63;;
40945;SDS011;55635;50.264;11.918;2023-01-16T16:14:44;0.80;;;0.60;;
40945;SDS011;55635;50.264;11.918;2023-01-16T16:17:44;2.08;;;0.60;;
40945;SDS011;55635;50.264;11.918;2023-01-16T16:20:52;0.98;;;0.45;;
40945;SDS011;55635;50.264;11.918;2023-01-16T16:23:53;0.90;;;0.60;;
40945;SDS011;55635;50.264;11.918;2023-01-16T16:26:43;1.95;;;1.42;;
40945;SDS011;55635;50.264;11.918;2023-01-16T16:29:24;2.70;;;0.65;;
40945;SDS011;55635;50.264;11.918;2023-01-16T16:32:06;1.65;;;0.57;;
40945;SDS011;55635;50.264;11.918;2023-01-16T16:34:55;1.33;;;0.60;;
40945;SDS011;55635;50.264;11.918;2023-01-16T16:37:40;2.45;;;0.70;;
40945;SDS011;55635;50.264;11.918;2023-01-16T16:40:24;2.38;;;1.13;;
40945;SDS011;55635;50.264;11.918;2023-01-16T16:43:05;4.00;;;1.20;;
40945;SDS011;55635;50.264;11.918;2023-01-16T16:45:46;3.47;;;1.00;;
40945;SDS011;55635;50.264;11.918;2023-01-16T16:48:28;1.50;;;1.02;;
40945;SDS011;55635;50.264;11.918;2023-01-16T16:51:18;1.65;;;1.05;;
40945;SDS011;55635;50.264;11.918;2023-01-16T16:54:10;2.20;;;0.93;;
40945;SDS011;55635;50.264;11.918;2023-01-16T16:56:56;1.52;;;0.93;;
40945;SDS011;55635;50.264;11.918;2023-01-16T16:59:38;2.70;;;1.00;;
40945;SDS011;55635;50.264;11.918;2023-01-16T17:02:19;2.33;;;1.02;;
40945;SDS011;55635;50.264;11.918;2023-01-16T17:05:04;1.60;;;1.10;;
40945;SDS011;55635;50.264;11.918;2023-01-16T17:07:51;1.00;;;0.70;;
40945;SDS011;55635;50.264;11.918;2023-01-16T17:10:32;2.03;;;0.95;;
40945;SDS011;55635;50.264;11.918;2023-01-16T17:13:17;0.95;;;0.77;;
40945;SDS011;55635;50.264;11.918;2023-01-16T17:15:59;0.90;;;0.65;;
40945;SDS011;55635;50.264;11.918;2023-01-16T17:18:40;1.33;;;0.93;;
40945;SDS011;55635;50.264;11.918;2023-01-16T17:21:21;1.10;;;0.90;;
40945;SDS011;55635;50.264;11.918;2023-01-16T17:24:02;1.98;;;1.02;;
40945;SDS011;55635;50.264;11.918;2023-01-16T17:26:44;1.10;;;0.70;;
40945;SDS011;55635;50.264;11.918;2023-01-16T17:29:26;1.63;;;1.10;;
40945;SDS011;55635;50.264;11.918;2023-01-16T17:32:07;3.67;;;1.38;;
40945;SDS011;55635;50.264;11.918;2023-01-16T17:35:14;1.13;;;0.90;;
40945;SDS011;55635;50.264;11.918;2023-01-16T17:37:56;1.23;;;0.85;;
40945;SDS011;55635;50.264;11.918;2023-01-16T17:40:37;1.95;;;0.80;;
40945;SDS011;55635;50.264;11.918;2023-01-16T17:43:20;1.92;;;0.98;;
40945;SDS011;55635;50.264;11.918;2023-01-16T17:46:20;2.05;;;0.95;;
40945;SDS011;55635;50.264;11.918;2023-01-16T17:49:03;2.28;;;0.80;;
40945;SDS011;55635;50.264;11.918;2023-01-16T17:51:47;1.45;;;1.15;;
40945;SDS011;55635;50.264;11.918;2023-01-16T17:54:28;1.17;;;0.63;;
40945;SDS011;55635;50.264;11.918;2023-01-16T18:00:08;0.93;;;0.85;;
40945;SDS011;55635;50.264;11.918;2023-01-16T18:02:51;0.93;;;0.80;;
40945;SDS011;55635;50.264;11.918;2023-01-16T18:05:35;1.13;;;0.80;;
40945;SDS011;55635;50.264;11.918;2023-01-16T18:08:16;1.25;;;0.98;;
40945;SDS011;55635;50.264;11.918;2023-01-16T18:10:58;1.15;;;1.00;;
40945;SDS011;55635;50.264;11.918;2023-01-16T18:14:04;3.60;;;0.80;;
40945;SDS011;55635;50.264;11.918;2023-01-16T18:17:04;1.08;;;0.68;;
40945;SDS011;55635;50.264;11.918;2023-01-16T18:20:05;1.27;;;0.88;;
40945;SDS011;55635;50.264;11.918;2023-01-16T18:22:47;1.08;;;0.70;;
40945;SDS011;55635;50.264;11.918;2023-01-16T18:25:28;2.05;;;0.80;;
40945;SDS011;55635;50.264;11.918;2023-01-16T18:28:09;1.08;;;0.70;;
40945;SDS011;55635;50.264;11.918;2023-01-16T18:30:50;0.80;;;0.65;;
40945;SDS011;55635;50.264;11.918;2023-01-16T18:33:34;0.73;;;0.52;;
40945;SDS011;55635;50.264;11.918;2023-01-16T18:36:19;1.90;;;0.70;;
40945;SDS011;55635;50.264;11.918;2023-01-16T18:39:03;1.48;;;1.00;;
40945;SDS011;55635;50.264;11.918;2023-01-16T18:42:19;2.95;;;0.95;;
40945;SDS011;55635;50.264;11.918;2023-01-16T18:45:19;3.08;;;1.10;;
40945;SDS011;55635;50.264;11.918;2023-01-16T18:54:18;2.17;;;0.73;;
40945;SDS011;55635;50.264;11.918;2023-01-16T18:57:19;2.00;;;1.23;;
40945;SDS011;55635;50.264;11.918;2023-01-16T19:00:22;0.93;;;0.70;;
40945;SDS011;55635;50.264;11.918;2023-01-16T19:06:03;1.20;;;1.10;;
40945;SDS011;55635;50.264;11.918;2023-01-16T19:08:44;1.20;;;1.00;;
40945;SDS011;55635;50.264;11.918;2023-01-16T19:11:30;0.73;;;0.70;;
40945;SDS011;55635;50.264;11.918;2023-01-16T19:14:14;4.13;;;0.98;;
40945;SDS011;55635;50.264;11.918;2023-01-16T19:16:57;1.73;;;0.63;;
40945;SDS011;55635;50.264;11.918;2023-01-16T19:19:37;1.17;;;0.55;;
40945;SDS011;55635;50.264;11.918;2023-01-16T19:22:18;0.90;;;0.70;;
40945;SDS011;55635;50.264;11.918;2023-01-16T19:25:00;2.30;;;0.50;;
40945;SDS011;55635;50.264;11.918;2023-01-16T19:27:40;2.65;;;0.90;;